M I D A S
Marine Information and Data Acquisition System
Tripno 2186 of the Zeeleeuw from 2011-09-20 07:02:04 to 2011-09-20 14:33:28
Back to CruiseResearch ActivitiesStationsMapUnderway DataData graphs

EquipmentUnitsComment
TimeDGPSUTC
LatitudeDGPSDM.mWGS84
LongitudeDGPSDM.mWGS84
HeadingGyrodeg 
SOGDGPSknotsSpeed over ground
COGDGPSdegCourse over ground
DepthEcho soundermeters200 kHz
Missing or incorrect values are displayed as -999
Navigation data collected by the RV Zeeleeuw from 2011-09-20 07:08:50 to 2011-09-20 15:36:53
                                                                                    Next 1000 lines
Time Latitude Longitude Heading SOG COG Depth
2011-09-20 07:08:59 51°13.635 2°56.015 109.7 1.1 287 8.5
2011-09-20 07:09:04 51°13.636 2°56.012 109.4 1.5 292 8.4
2011-09-20 07:09:09 51°13.637 2°56.008 109.3 2 291 8.6
2011-09-20 07:09:14 51°13.638 2°56.004 109.9 2.3 293 8.6
2011-09-20 07:09:20 51°13.64 2°55.997 110.8 2.7 292 -999
2011-09-20 07:09:26 51°13.642 2°55.99 111.1 3.1 296 -999
2011-09-20 07:09:31 51°13.644 2°55.983 111.2 3.3 295 -999
2011-09-20 07:09:37 51°13.647 2°55.974 111.1 3.7 293 -999
2011-09-20 07:09:42 51°13.649 2°55.966 111 3.9 293 -999
2011-09-20 07:09:48 51°13.651 2°55.956 110.6 4.1 292 -999
2011-09-20 07:09:53 51°13.653 2°55.947 110.2 4.2 292 -999
2011-09-20 07:09:58 51°13.656 2°55.938 109.7 4.3 291 -999
2011-09-20 07:10:02 51°13.657 2°55.931 109.3 4.3 291 -999
2011-09-20 07:10:08 51°13.66 2°55.92 109.1 4.4 291 -999
2011-09-20 07:10:13 51°13.662 2°55.911 108.9 4.4 290 -999
2011-09-20 07:10:18 51°13.664 2°55.902 108.8 4.4 291 -999
2011-09-20 07:10:23 51°13.667 2°55.893 108.8 4.5 290 -999
2011-09-20 07:10:28 51°13.669 2°55.884 108.8 4.5 291 -999
2011-09-20 07:10:33 51°13.671 2°55.874 108.8 4.5 290 -999
2011-09-20 07:10:38 51°13.673 2°55.865 108.9 4.5 290 -999
2011-09-20 07:10:42 51°13.675 2°55.858 108.8 4.4 291 -999
2011-09-20 07:10:48 51°13.677 2°55.847 108.3 4.3 290 -999
2011-09-20 07:10:53 51°13.679 2°55.838 107.5 4.2 290 -999
2011-09-20 07:10:58 51°13.681 2°55.83 106.6 4.1 288 -999
2011-09-20 07:11:02 51°13.682 2°55.823 105.5 4.1 289 -999
2011-09-20 07:11:08 51°13.684 2°55.813 104.6 4 287 -999
2011-09-20 07:11:13 51°13.686 2°55.804 103.1 4 287 -999
2011-09-20 07:11:18 51°13.687 2°55.796 101.6 4 285 -999
2011-09-20 07:11:22 51°13.688 2°55.789 99.9 4 284 -999
2011-09-20 07:11:28 51°13.69 2°55.779 98.4 3.9 282 -999
2011-09-20 07:11:33 51°13.691 2°55.771 96.1 3.7 281 -999
2011-09-20 07:11:38 51°13.691 2°55.763 94.2 3.6 279 -999
2011-09-20 07:11:42 51°13.692 2°55.757 92.3 3.4 278 -999
2011-09-20 07:11:48 51°13.693 2°55.749 91 3 278 -999
2011-09-20 07:11:53 51°13.693 2°55.744 89.4 2.3 277 -999
2011-09-20 07:11:58 51°13.693 2°55.741 86.7 1.6 283 -999
2011-09-20 07:12:02 51°13.694 2°55.739 82.9 1 278 -999
2011-09-20 07:12:07 51°13.694 2°55.737 78.9 0.8 291 13.9
2011-09-20 07:12:12 51°13.694 2°55.736 75.1 0.5 290 13.6
2011-09-20 07:12:18 51°13.695 2°55.735 71.7 0.5 311 13.5
2011-09-20 07:12:22 51°13.695 2°55.735 68.4 0.3 331 13.9
2011-09-20 07:12:26 51°13.695 2°55.735 64.6 0.4 355 13.7
2011-09-20 07:12:31 51°13.696 2°55.735 60.6 0.5 15 13.8
2011-09-20 07:12:36 51°13.697 2°55.735 56.6 0.6 19 13.8
2011-09-20 07:12:41 51°13.698 2°55.736 52.3 0.8 24 13.4
2011-09-20 07:12:46 51°13.699 2°55.737 47.9 0.9 24 13.3
2011-09-20 07:12:50 51°13.7 2°55.737 43.2 1 23 13.8
2011-09-20 07:12:55 51°13.701 2°55.738 38.5 1.1 23 13.5
2011-09-20 07:13:00 51°13.703 2°55.739 33.9 1.2 19 13.3
2011-09-20 07:13:05 51°13.705 2°55.74 29.1 1.4 17 13.1
2011-09-20 07:13:10 51°13.707 2°55.741 24.5 1.5 14 13.1
2011-09-20 07:13:14 51°13.709 2°55.741 20 1.6 11 13.4
2011-09-20 07:13:19 51°13.711 2°55.742 15.5 1.7 7 13.2
2011-09-20 07:13:25 51°13.714 2°55.742 10.8 2.1 2 13.4
2011-09-20 07:13:30 51°13.718 2°55.742 5.8 2.3 358 13.2
2011-09-20 07:13:34 51°13.72 2°55.741 359.9 2.6 353 12.8
2011-09-20 07:13:39 51°13.724 2°55.74 353.5 2.9 346 13
2011-09-20 07:13:44 51°13.728 2°55.738 346.9 3.1 341 -999
2011-09-20 07:13:50 51°13.734 2°55.734 338.8 3.5 336 12.9
2011-09-20 07:13:55 51°13.738 2°55.729 333.3 3.8 331 -999
2011-09-20 07:14:01 51°13.744 2°55.723 330.1 4.4 330 -999
2011-09-20 07:14:06 51°13.75 2°55.718 327.5 5 327 -999
2011-09-20 07:14:11 51°13.757 2°55.711 326.8 5.5 327 12.6
2011-09-20 07:14:17 51°13.765 2°55.702 326.7 6 327 -999
2011-09-20 07:14:22 51°13.772 2°55.695 326.7 6.4 327 -999
2011-09-20 07:14:27 51°13.78 2°55.686 326.8 6.8 326 -999
2011-09-20 07:14:32 51°13.789 2°55.678 326.8 7.2 328 12.5
2011-09-20 07:14:38 51°13.799 2°55.668 327.4 7.5 329 -999
2011-09-20 07:14:42 51°13.807 2°55.661 328.9 7.7 330 12.5
2011-09-20 07:14:48 51°13.818 2°55.65 330.2 8 331 -999
2011-09-20 07:14:53 51°13.828 2°55.642 331.4 8.2 332 -999
2011-09-20 07:14:58 51°13.839 2°55.634 333 8.4 333 -999
2011-09-20 07:15:03 51°13.849 2°55.625 333.3 8.6 333 -999
2011-09-20 07:15:08 51°13.86 2°55.617 333.6 8.9 335 -999
2011-09-20 07:15:13 51°13.872 2°55.608 334.5 9.1 334 -999
2011-09-20 07:15:18 51°13.884 2°55.599 334.8 9.2 335 -999
2011-09-20 07:15:22 51°13.893 2°55.593 335.4 9.4 335 12.5
2011-09-20 07:15:28 51°13.907 2°55.582 335.6 9.6 335 12.7
2011-09-20 07:15:32 51°13.917 2°55.574 335.5 9.7 335 12.7
2011-09-20 07:15:38 51°13.932 2°55.563 335.9 9.9 336 12.7
2011-09-20 07:15:42 51°13.942 2°55.556 336.1 10 335 12.8
2011-09-20 07:15:48 51°13.957 2°55.545 336 10.1 337 -999
2011-09-20 07:15:52 51°13.968 2°55.538 336.5 10.2 336 12.6
2011-09-20 07:15:58 51°13.983 2°55.526 336.7 10.3 335 -999
2011-09-20 07:16:02 51°13.994 2°55.519 336.1 10.4 336 12.5
2011-09-20 07:16:07 51°14.007 2°55.509 336.2 10.5 335 -999
2011-09-20 07:16:12 51°14.021 2°55.5 336.1 10.6 336 12.3
2011-09-20 07:16:17 51°14.034 2°55.49 335.9 10.6 335 12
2011-09-20 07:16:22 51°14.047 2°55.48 335.9 10.6 335 12.2
2011-09-20 07:16:27 51°14.061 2°55.47 335.7 10.7 335 12.2
2011-09-20 07:16:32 51°14.074 2°55.459 335.1 10.7 333 12.2
2011-09-20 07:16:37 51°14.088 2°55.449 333.8 10.7 334 12.1
2011-09-20 07:16:42 51°14.101 2°55.438 333.9 10.8 335 12.1
2011-09-20 07:16:47 51°14.114 2°55.427 334.5 10.8 333 -999
2011-09-20 07:16:52 51°14.128 2°55.417 334.3 10.8 333 12
2011-09-20 07:16:57 51°14.141 2°55.406 334 10.8 334 11.9
2011-09-20 07:17:02 51°14.155 2°55.396 334.4 10.8 334 11.9
2011-09-20 07:17:06 51°14.165 2°55.387 334.2 10.8 333 11.9
2011-09-20 07:17:11 51°14.179 2°55.377 334.1 10.9 334 -999
2011-09-20 07:17:17 51°14.195 2°55.363 333.2 11 331 -999
2011-09-20 07:17:22 51°14.209 2°55.352 332.8 11.2 334 11.9
2011-09-20 07:17:27 51°14.223 2°55.339 333.3 11.4 331 -999
2011-09-20 07:17:32 51°14.237 2°55.327 332.5 11.5 332 12.2
2011-09-20 07:17:37 51°14.251 2°55.315 332.4 11.6 332 12.1
2011-09-20 07:17:42 51°14.265 2°55.303 332.7 11.6 332 12
2011-09-20 07:17:47 51°14.279 2°55.29 332.5 11.7 330 -999
2011-09-20 07:17:52 51°14.294 2°55.278 332.1 11.8 331 11.9
2011-09-20 07:17:57 51°14.308 2°55.265 331.8 11.9 329 -999
2011-09-20 07:18:02 51°14.322 2°55.252 331.3 11.9 330 11.9
2011-09-20 07:18:07 51°14.336 2°55.238 330.6 12 328 -999
2011-09-20 07:18:13 51°14.353 2°55.222 330.1 12 330 11.9
2011-09-20 07:18:18 51°14.367 2°55.208 330.2 12 329 11.9
2011-09-20 07:18:22 51°14.379 2°55.197 329.6 12 330 11.9
2011-09-20 07:18:27 51°14.394 2°55.184 329.7 12 331 11.9
2011-09-20 07:18:32 51°14.408 2°55.172 331.1 12.1 331 12
2011-09-20 07:18:37 51°14.423 2°55.158 331.8 12.2 330 11.9
2011-09-20 07:18:42 51°14.438 2°55.145 331.5 12.2 330 11.9
2011-09-20 07:18:46 51°14.45 2°55.134 331.1 12.2 331 11.8
2011-09-20 07:18:51 51°14.464 2°55.121 331.5 12.2 331 11.4
2011-09-20 07:18:56 51°14.479 2°55.108 331.2 12.3 331 11.8
2011-09-20 07:19:01 51°14.495 2°55.095 331.8 12.5 332 11.6
2011-09-20 07:19:06 51°14.509 2°55.081 331.5 12.5 330 11.9
2011-09-20 07:19:10 51°14.522 2°55.07 330.4 12.5 330 12
2011-09-20 07:19:15 51°14.537 2°55.056 330.6 12.6 330 12.3
2011-09-20 07:19:20 51°14.552 2°55.042 330.1 12.6 328 12.7
2011-09-20 07:19:25 51°14.567 2°55.028 329.6 12.7 330 12.5
2011-09-20 07:19:30 51°14.582 2°55.013 329.3 12.7 327 12.7
2011-09-20 07:19:34 51°14.594 2°55.001 327.6 12.7 327 12.9
2011-09-20 07:19:39 51°14.608 2°54.984 326.2 12.7 325 12.7
2011-09-20 07:19:44 51°14.622 2°54.968 325 12.7 324 12.9
2011-09-20 07:19:50 51°14.64 2°54.948 324.3 12.7 325 12.8
2011-09-20 07:19:54 51°14.651 2°54.935 324.8 12.8 326 12.5
2011-09-20 07:19:59 51°14.665 2°54.918 324.6 12.7 324 12.4
2011-09-20 07:20:04 51°14.68 2°54.903 324.7 12.6 326 12.5
2011-09-20 07:20:09 51°14.694 2°54.887 324.2 12.7 324 12.7
2011-09-20 07:20:14 51°14.709 2°54.871 324.8 12.6 326 12.4
2011-09-20 07:20:19 51°14.723 2°54.856 325.7 12.6 326 12.4
2011-09-20 07:20:24 51°14.737 2°54.84 325.2 12.7 325 12.7
2011-09-20 07:20:30 51°14.755 2°54.821 324.6 12.5 326 12
2011-09-20 07:20:34 51°14.766 2°54.807 324 12.5 324 12.4
2011-09-20 07:20:39 51°14.78 2°54.792 323.5 12.6 325 12.4
2011-09-20 07:20:44 51°14.794 2°54.774 321.8 12.5 322 12.3
2011-09-20 07:20:50 51°14.811 2°54.755 320.8 12.5 323 12.3
2011-09-20 07:20:54 51°14.822 2°54.742 321.6 12.5 323 12.5
2011-09-20 07:20:59 51°14.835 2°54.725 322.1 12.5 323 12.6
2011-09-20 07:21:05 51°14.852 2°54.706 322.4 12.5 325 12.3
2011-09-20 07:21:09 51°14.864 2°54.693 323.7 12.4 325 12
2011-09-20 07:21:14 51°14.878 2°54.678 324.7 12.4 326 12.7
2011-09-20 07:21:19 51°14.892 2°54.662 324.4 12.5 325 12.5
2011-09-20 07:21:24 51°14.906 2°54.645 323.7 12.6 325 12.4
2011-09-20 07:21:30 51°14.923 2°54.626 323.7 12.5 324 12.4
2011-09-20 07:21:34 51°14.934 2°54.613 322.1 12.5 323 11.9
2011-09-20 07:21:39 51°14.948 2°54.596 321.3 12.5 322 12
2011-09-20 07:21:45 51°14.964 2°54.576 320.9 12.5 322 12
2011-09-20 07:21:49 51°14.975 2°54.562 320.2 12.5 321 12.2
2011-09-20 07:21:54 51°14.989 2°54.545 319.7 12.4 322 11.9
2011-09-20 07:21:59 51°15.003 2°54.529 319.9 12.4 323 12
2011-09-20 07:22:04 51°15.017 2°54.513 321.7 12.5 326 11.7
2011-09-20 07:22:10 51°15.034 2°54.496 323.6 12.5 328 11.6
2011-09-20 07:22:14 51°15.046 2°54.484 325.2 12.5 328 11.4
2011-09-20 07:22:19 51°15.061 2°54.471 327.3 12.5 332 10.9
2011-09-20 07:22:25 51°15.08 2°54.456 330.3 12.4 334 10.4
2011-09-20 07:22:30 51°15.096 2°54.445 332.5 12.4 336 10.7
2011-09-20 07:22:34 51°15.108 2°54.436 334.2 12.5 336 10.6
2011-09-20 07:22:39 51°15.125 2°54.426 335.2 12.5 338 10.5
2011-09-20 07:22:44 51°15.141 2°54.416 336.4 12.5 340 10.4
2011-09-20 07:22:50 51°15.16 2°54.404 338 12.5 338 10.3
2011-09-20 07:22:54 51°15.173 2°54.397 338.6 12.5 340 10.1
2011-09-20 07:22:58 51°15.186 2°54.389 338.9 12.4 339 10.1
2011-09-20 07:23:04 51°15.205 2°54.377 339.1 12.5 340 10.6
2011-09-20 07:23:09 51°15.221 2°54.367 339.3 12.5 339 10.2
2011-09-20 07:23:14 51°15.238 2°54.358 339.3 12.5 340 10.2
2011-09-20 07:23:19 51°15.254 2°54.348 339.3 12.4 340 10.2
2011-09-20 07:23:24 51°15.27 2°54.34 339.2 12.4 342 10.3
2011-09-20 07:23:29 51°15.287 2°54.334 341.4 12.4 350 10.4
2011-09-20 07:23:34 51°15.304 2°54.331 348.1 12.3 354 10.2
2011-09-20 07:23:39 51°15.321 2°54.332 355.3 12.2 1 10.1
2011-09-20 07:23:44 51°15.338 2°54.332 359.7 12.3 2 10.1
2011-09-20 07:23:50 51°15.359 2°54.335 2.8 12.5 4 10.2
2011-09-20 07:23:54 51°15.372 2°54.337 4.6 12.5 5 10.4
2011-09-20 07:23:59 51°15.39 2°54.34 5.5 12.5 6 10.5
2011-09-20 07:24:05 51°15.411 2°54.344 6.3 12.6 7 10.5
2011-09-20 07:24:09 51°15.424 2°54.347 7.3 12.7 8 10.6
2011-09-20 07:24:15 51°15.445 2°54.352 8.8 12.6 9 10.8
2011-09-20 07:24:19 51°15.459 2°54.356 9 12.5 10 10.8
2011-09-20 07:24:24 51°15.476 2°54.36 10.4 12.7 8 10.9
2011-09-20 07:24:30 51°15.497 2°54.367 10.2 12.7 12 10.7
2011-09-20 07:24:34 51°15.51 2°54.371 11.6 12.5 12 10.7
2011-09-20 07:24:39 51°15.527 2°54.379 13.2 12.5 16 11
2011-09-20 07:24:44 51°15.544 2°54.386 15.4 12.6 16 10.9
2011-09-20 07:24:50 51°15.564 2°54.395 17.1 12.6 17 10.7
2011-09-20 07:24:54 51°15.578 2°54.402 17.2 12.6 16 10.7
2011-09-20 07:24:59 51°15.594 2°54.409 15.9 12.5 15 10.8
2011-09-20 07:25:04 51°15.611 2°54.417 16.6 12.6 17 11.1
2011-09-20 07:25:10 51°15.631 2°54.426 17.6 12.7 16 11.1
2011-09-20 07:25:14 51°15.645 2°54.434 17.5 12.6 18 11
2011-09-20 07:25:19 51°15.662 2°54.441 17.3 12.7 15 11
2011-09-20 07:25:24 51°15.678 2°54.451 18 12.7 21 11.1
2011-09-20 07:25:29 51°15.695 2°54.459 20.1 12.7 19 11.1
2011-09-20 07:25:34 51°15.711 2°54.469 20.6 12.7 20 10.8
2011-09-20 07:25:39 51°15.728 2°54.478 20.3 12.7 18 11.1
2011-09-20 07:25:44 51°15.744 2°54.487 19.1 12.6 19 11
2011-09-20 07:25:50 51°15.764 2°54.498 19.1 12.8 19 11.2
2011-09-20 07:25:54 51°15.778 2°54.505 19.5 12.8 19 11.2
2011-09-20 07:25:59 51°15.794 2°54.516 19.9 12.8 21 11.2
2011-09-20 07:26:05 51°15.814 2°54.527 20.8 12.7 21 11
2011-09-20 07:26:09 51°15.827 2°54.537 21.8 12.7 23 11.4
2011-09-20 07:26:14 51°15.843 2°54.548 23.1 12.8 24 11.6
2011-09-20 07:26:19 51°15.86 2°54.558 25 12.7 22 11.5
2011-09-20 07:26:25 51°15.88 2°54.57 23.7 12.6 19 11.3
2011-09-20 07:26:30 51°15.896 2°54.577 20.1 12.5 15 11.1
2011-09-20 07:26:34 51°15.91 2°54.581 15.9 12.5 11 11.1
2011-09-20 07:26:39 51°15.927 2°54.585 11.5 12.5 7 11.3
2011-09-20 07:26:45 51°15.948 2°54.585 5.9 12.2 -999 11.3
2011-09-20 07:26:50 51°15.965 2°54.584 1.3 12.4 357 11.5
2011-09-20 07:26:54 51°15.978 2°54.581 356.6 12.3 353 11.4
2011-09-20 07:26:59 51°15.995 2°54.577 352.7 12.3 352 11.8
2011-09-20 07:27:04 51°16.012 2°54.573 351.5 12.4 349 11.5
2011-09-20 07:27:10 51°16.032 2°54.565 349.1 12.4 347 11.7
2011-09-20 07:27:14 51°16.045 2°54.559 346.7 12.4 345 11.5
2011-09-20 07:27:19 51°16.062 2°54.55 343.8 12.4 342 11.6
2011-09-20 07:27:24 51°16.078 2°54.542 341.2 12.4 342 11.7
2011-09-20 07:27:29 51°16.095 2°54.535 341.1 12.3 348 11.5
2011-09-20 07:27:34 51°16.112 2°54.532 346.4 12.3 353 12.1
2011-09-20 07:27:39 51°16.129 2°54.531 352.8 12.3 357 11.7
2011-09-20 07:27:44 51°16.146 2°54.528 355.6 12.2 356 11.4
2011-09-20 07:27:49 51°16.163 2°54.527 356.6 12.3 356 11.7
2011-09-20 07:27:54 51°16.179 2°54.524 355.4 12 352 11.7
2011-09-20 07:27:59 51°16.195 2°54.52 352.9 11.4 353 11.7
2011-09-20 07:28:04 51°16.21 2°54.516 351.3 10.7 350 11.8
2011-09-20 07:28:10 51°16.226 2°54.511 349.2 10 348 11.7
2011-09-20 07:28:14 51°16.236 2°54.507 346.8 9.6 347 11.8
2011-09-20 07:28:19 51°16.249 2°54.501 343.9 9 344 12.1
2011-09-20 07:28:25 51°16.262 2°54.495 341.9 8.5 342 12.1
2011-09-20 07:28:29 51°16.27 2°54.49 339.5 7.9 340 12.2
2011-09-20 07:28:34 51°16.28 2°54.484 337.6 7.4 340 12.5
2011-09-20 07:28:39 51°16.289 2°54.478 335 6.7 337 12.1
2011-09-20 07:28:44 51°16.296 2°54.472 331.9 6.1 334 12.1
2011-09-20 07:28:50 51°16.305 2°54.465 328.8 5.6 331 12.2
2011-09-20 07:28:54 51°16.31 2°54.46 325.3 5.2 330 12.3
2011-09-20 07:28:59 51°16.315 2°54.455 322.1 4.8 329 12.1
2011-09-20 07:29:05 51°16.321 2°54.449 319.3 4.2 328 12.3
2011-09-20 07:29:10 51°16.325 2°54.444 317.3 3.8 327 12.3
2011-09-20 07:29:14 51°16.328 2°54.441 314.9 3.4 324 12.2
2011-09-20 07:29:19 51°16.332 2°54.437 313.2 3 327 12.3
2011-09-20 07:29:24 51°16.335 2°54.434 311.3 2.5 325 12.4
2011-09-20 07:29:30 51°16.338 2°54.431 309.4 2.2 329 12.4
2011-09-20 07:29:34 51°16.339 2°54.429 307.7 1.8 330 12.2
2011-09-20 07:29:39 51°16.341 2°54.428 305.6 1.5 337 12.4
2011-09-20 07:29:44 51°16.343 2°54.428 303 1 347 12.4
2011-09-20 07:29:49 51°16.344 2°54.428 300.5 0.9 17 12.4
2011-09-20 07:29:54 51°16.345 2°54.429 298.5 0.7 25 12.2
2011-09-20 07:29:59 51°16.346 2°54.429 297.7 0.9 29 12.2
2011-09-20 07:30:04 51°16.347 2°54.43 297.4 0.9 30 12.1
2011-09-20 07:30:09 51°16.348 2°54.431 297 0.9 23 12.2
2011-09-20 07:30:14 51°16.349 2°54.432 297.2 0.9 23 12.4
2011-09-20 07:30:19 51°16.35 2°54.433 297.9 0.9 26 12.2
2011-09-20 07:30:24 51°16.351 2°54.434 298.9 0.9 28 12.2
2011-09-20 07:30:30 51°16.352 2°54.435 299.8 0.9 28 12.2
2011-09-20 07:30:34 51°16.353 2°54.436 301 1 27 12.3
2011-09-20 07:30:39 51°16.354 2°54.437 302 1 28 12.2
2011-09-20 07:30:44 51°16.355 2°54.438 303.2 1 32 12.4
2011-09-20 07:30:50 51°16.357 2°54.439 304.6 1 32 12.3
2011-09-20 07:30:54 51°16.358 2°54.44 306 0.9 32 12.2
2011-09-20 07:30:59 51°16.359 2°54.441 307.8 1.1 36 12.1
2011-09-20 07:31:05 51°16.36 2°54.443 309.6 0.9 31 12.3
2011-09-20 07:31:09 51°16.361 2°54.444 310.7 1 34 12.1
2011-09-20 07:31:14 51°16.362 2°54.445 312.9 0.9 32 12.3
2011-09-20 07:31:19 51°16.364 2°54.446 314.4 1 35 12.1
2011-09-20 07:31:24 51°16.365 2°54.448 316.5 1 33 12.2
2011-09-20 07:31:30 51°16.366 2°54.449 317.7 1 38 12.2
2011-09-20 07:31:34 51°16.367 2°54.45 319.5 1.1 37 12.2
2011-09-20 07:31:39 51°16.368 2°54.452 321 0.9 35 12
2011-09-20 07:31:44 51°16.369 2°54.453 322.8 1.1 33 12.4
2011-09-20 07:31:50 51°16.371 2°54.455 323.5 1.1 39 12.5
2011-09-20 07:31:54 51°16.371 2°54.456 325 0.9 39 12.3
2011-09-20 07:31:59 51°16.372 2°54.457 326.6 1.1 40 12.2
2011-09-20 07:32:04 51°16.373 2°54.458 328.2 1 36 12.2
2011-09-20 07:32:09 51°16.374 2°54.459 329.3 1 38 12.3
2011-09-20 07:32:14 51°16.376 2°54.461 330.3 1 37 12.2
2011-09-20 07:32:19 51°16.377 2°54.462 330.9 1 36 12.1
2011-09-20 07:32:24 51°16.378 2°54.464 331.6 1.1 37 12.3
2011-09-20 07:32:29 51°16.379 2°54.465 332.3 1.1 39 12.2
2011-09-20 07:32:34 51°16.38 2°54.466 332.5 1 37 12.2
2011-09-20 07:32:39 51°16.381 2°54.468 333 0.9 40 12
2011-09-20 07:32:45 51°16.383 2°54.469 333.8 1 38 12.1
2011-09-20 07:32:49 51°16.384 2°54.47 333.9 1 37 12
2011-09-20 07:32:54 51°16.385 2°54.471 334.1 1 35 12
2011-09-20 07:32:59 51°16.386 2°54.473 334.7 0.9 34 12.1
2011-09-20 07:33:05 51°16.387 2°54.474 334.9 0.9 33 12.1
2011-09-20 07:33:10 51°16.388 2°54.475 334.9 0.9 34 12.1
2011-09-20 07:33:14 51°16.389 2°54.477 334.7 1 37 12.1
2011-09-20 07:33:18 51°16.39 2°54.477 334.6 1 36 12.5
2011-09-20 07:33:25 51°16.392 2°54.479 334.6 0.9 37 12.2
2011-09-20 07:33:29 51°16.392 2°54.48 334.7 0.9 32 12
2011-09-20 07:33:34 51°16.394 2°54.481 334.7 1 36 12.1
2011-09-20 07:33:39 51°16.395 2°54.483 334.7 1 35 12.3
2011-09-20 07:33:44 51°16.396 2°54.484 334.5 1 35 12.4
2011-09-20 07:33:50 51°16.397 2°54.485 334.1 0.9 34 12.3
2011-09-20 07:33:54 51°16.398 2°54.486 334.2 1 36 12.2
2011-09-20 07:33:59 51°16.399 2°54.487 334 1 33 12.3
2011-09-20 07:34:04 51°16.401 2°54.489 333.6 1 29 12.3
2011-09-20 07:34:09 51°16.402 2°54.49 333.5 0.9 31 12.2
2011-09-20 07:34:14 51°16.403 2°54.491 333.2 1 34 12.1
2011-09-20 07:34:19 51°16.404 2°54.492 332.8 1 31 12.1
2011-09-20 07:34:24 51°16.405 2°54.494 332.3 1 28 12.2
2011-09-20 07:34:29 51°16.406 2°54.495 331.7 1.2 32 12.6
2011-09-20 07:34:34 51°16.407 2°54.496 331.1 1.1 37 12.7
2011-09-20 07:34:39 51°16.409 2°54.497 330.4 0.9 32 12.4
2011-09-20 07:34:44 51°16.41 2°54.498 330.6 1 36 12.1
2011-09-20 07:34:49 51°16.411 2°54.5 330.6 1 38 12.1
2011-09-20 07:34:54 51°16.412 2°54.501 330.5 1 33 12.1
2011-09-20 07:34:59 51°16.413 2°54.502 330.1 0.9 38 12.1
2011-09-20 07:35:04 51°16.415 2°54.504 329.8 0.9 38 11.9
2011-09-20 07:35:10 51°16.416 2°54.505 329.6 1 36 12.2
2011-09-20 07:35:14 51°16.417 2°54.506 329.4 1 36 12.3
2011-09-20 07:35:19 51°16.418 2°54.508 328.8 1 32 12.3
2011-09-20 07:35:25 51°16.419 2°54.509 328.2 1 31 12.4
2011-09-20 07:35:29 51°16.42 2°54.51 328.1 1 34 12.4
2011-09-20 07:35:34 51°16.421 2°54.511 327.6 0.9 32 12.2
2011-09-20 07:35:39 51°16.422 2°54.512 327.3 1 34 12
2011-09-20 07:35:44 51°16.423 2°54.514 327.1 0.9 32 12.2
2011-09-20 07:35:50 51°16.425 2°54.515 326.7 1 32 12.2
2011-09-20 07:35:54 51°16.426 2°54.516 326 1 31 12.2
2011-09-20 07:35:59 51°16.427 2°54.517 325.4 0.9 34 12.5
2011-09-20 07:36:04 51°16.428 2°54.518 325.3 0.9 32 12.3
2011-09-20 07:36:10 51°16.429 2°54.519 324.8 0.8 34 12.1
2011-09-20 07:36:14 51°16.43 2°54.52 324.7 1 29 12
2011-09-20 07:36:19 51°16.431 2°54.521 324.3 1 23 12.1
2011-09-20 07:36:24 51°16.433 2°54.522 323.8 1.1 15 12.2
2011-09-20 07:36:29 51°16.434 2°54.522 323.4 1.3 359 12.2
2011-09-20 07:36:34 51°16.437 2°54.522 322.9 1.7 352 12.3
2011-09-20 07:36:39 51°16.44 2°54.52 322 2.1 344 12.3
2011-09-20 07:36:44 51°16.443 2°54.518 320.7 2.6 338 12.2
2011-09-20 07:36:49 51°16.446 2°54.515 319.6 2.9 332 12.2
2011-09-20 07:36:54 51°16.451 2°54.511 318.1 3.2 331 12.3
2011-09-20 07:36:58 51°16.454 2°54.508 316.5 3.7 325 12.2
2011-09-20 07:37:05 51°16.46 2°54.5 314.6 4.3 321 12.2
2011-09-20 07:37:09 51°16.464 2°54.494 312.7 4.9 317 12.2
2011-09-20 07:37:14 51°16.47 2°54.486 310.7 5.5 317 12
2011-09-20 07:37:19 51°16.475 2°54.476 308.8 6.1 312 12.1
2011-09-20 07:37:24 51°16.482 2°54.465 307.6 6.8 312 12.3
2011-09-20 07:37:30 51°16.49 2°54.45 307.1 7.4 310 12.4
2011-09-20 07:37:34 51°16.495 2°54.44 306.5 7.8 311 12.4
2011-09-20 07:37:39 51°16.503 2°54.425 306.5 8.4 309 12.3
2011-09-20 07:37:45 51°16.512 2°54.407 306.4 8.9 309 12.3
2011-09-20 07:37:49 51°16.518 2°54.394 306.1 9.4 308 12.3
2011-09-20 07:37:54 51°16.526 2°54.377 305.6 9.7 308 12.3
2011-09-20 07:37:59 51°16.535 2°54.359 305.2 10 307 12.1
2011-09-20 07:38:04 51°16.543 2°54.341 304.8 10.3 307 12.2
2011-09-20 07:38:10 51°16.554 2°54.319 304.5 10.5 306 12.3
2011-09-20 07:38:14 51°16.561 2°54.303 304.2 10.7 307 12.3
2011-09-20 07:38:19 51°16.569 2°54.283 304.2 10.8 306 12.2
2011-09-20 07:38:24 51°16.578 2°54.263 303.5 11.1 305 12.6
2011-09-20 07:38:30 51°16.589 2°54.238 303 11.2 304 12.2
2011-09-20 07:38:34 51°16.596 2°54.222 302.5 11.3 304 11.9
2011-09-20 07:38:39 51°16.605 2°54.201 302.5 11.3 305 12.5
2011-09-20 07:38:45 51°16.616 2°54.176 302.9 11.7 304 12.6
2011-09-20 07:38:50 51°16.625 2°54.155 302.7 11.7 304 12.2
2011-09-20 07:38:54 51°16.632 2°54.138 302.7 11.8 304 12.9
2011-09-20 07:38:58 51°16.639 2°54.12 302.4 11.9 303 12.2
2011-09-20 07:39:05 51°16.652 2°54.089 302 11.9 303 12
2011-09-20 07:39:09 51°16.659 2°54.071 301.3 12 302 12.5
2011-09-20 07:39:14 51°16.668 2°54.048 300.3 12.1 301 12.3
2011-09-20 07:39:19 51°16.676 2°54.024 299.1 12.1 300 12.4
2011-09-20 07:39:24 51°16.685 2°54 298.3 12.1 300 12.3
2011-09-20 07:39:30 51°16.695 2°53.973 298.3 12.2 300 12.2
2011-09-20 07:39:34 51°16.701 2°53.954 298.5 12.2 299 12.4
2011-09-20 07:39:39 51°16.709 2°53.931 297.7 12.2 299 12.4
2011-09-20 07:39:44 51°16.717 2°53.907 297.7 12.3 300 12.4
2011-09-20 07:39:50 51°16.728 2°53.879 298.3 12.3 300 12.2
2011-09-20 07:39:54 51°16.734 2°53.86 298.2 12.3 300 11.9
2011-09-20 07:39:59 51°16.743 2°53.837 298.8 12.1 301 12.5
2011-09-20 07:40:05 51°16.754 2°53.81 299.5 12.1 302 12.1
2011-09-20 07:40:09 51°16.761 2°53.792 299.8 12.1 302 12.1
2011-09-20 07:40:14 51°16.77 2°53.769 300.5 12.1 302 12.4
2011-09-20 07:40:19 51°16.779 2°53.746 300.3 12.1 302 12
2011-09-20 07:40:24 51°16.787 2°53.724 300.2 12 301 12.1
2011-09-20 07:40:30 51°16.798 2°53.696 299.8 12.2 300 12.4
2011-09-20 07:40:34 51°16.804 2°53.677 299.1 12.2 301 11.8
2011-09-20 07:40:39 51°16.813 2°53.655 299 12.1 301 12.1
2011-09-20 07:40:44 51°16.822 2°53.631 299.3 12.1 301 12.1
2011-09-20 07:40:50 51°16.832 2°53.604 299.1 12.2 301 12
2011-09-20 07:40:54 51°16.839 2°53.585 299.1 12.2 300 12.1
2011-09-20 07:40:59 51°16.847 2°53.562 298.9 12.2 300 12
2011-09-20 07:41:04 51°16.856 2°53.538 298.1 12.2 300 11.8
2011-09-20 07:41:09 51°16.864 2°53.515 298.8 12.3 302 11.8
2011-09-20 07:41:14 51°16.874 2°53.492 299.8 12.2 302 11.4
2011-09-20 07:41:19 51°16.883 2°53.47 300.7 12.2 303 11.4
2011-09-20 07:41:24 51°16.892 2°53.447 301.6 12.2 305 11
2011-09-20 07:41:29 51°16.902 2°53.425 302.7 12.3 304 10.7
2011-09-20 07:41:34 51°16.911 2°53.403 302.7 12.2 304 10
2011-09-20 07:41:39 51°16.921 2°53.381 302.2 12.1 304 9.6
2011-09-20 07:41:44 51°16.93 2°53.359 302.2 12.1 304 9.6
2011-09-20 07:41:50 51°16.941 2°53.332 302.4 12 303 9.1
2011-09-20 07:41:54 51°16.948 2°53.313 301.2 11.9 302 8.9
2011-09-20 07:41:59 51°16.956 2°53.291 299.8 12 301 9.1
2011-09-20 07:42:05 51°16.966 2°53.264 299.1 11.9 299 8.8
2011-09-20 07:42:09 51°16.973 2°53.245 297.8 12 298 9.1
2011-09-20 07:42:14 51°16.981 2°53.222 296.9 12 299 9.3
2011-09-20 07:42:19 51°16.989 2°53.198 296.9 12 298 9.3
2011-09-20 07:42:24 51°16.997 2°53.175 297.1 12 299 9.4
2011-09-20 07:42:30 51°17.007 2°53.147 297.3 12 299 9.3
2011-09-20 07:42:34 51°17.013 2°53.129 298.4 12.1 301 9.4
2011-09-20 07:42:39 51°17.022 2°53.106 298.9 12.1 301 9.5
2011-09-20 07:42:44 51°17.031 2°53.083 299.6 12.1 302 9.5
2011-09-20 07:42:50 51°17.042 2°53.056 301 12.2 304 9.6
2011-09-20 07:42:54 51°17.05 2°53.038 302 12.2 303 9.5
2011-09-20 07:42:59 51°17.059 2°53.015 301.6 12.3 303 9.8
2011-09-20 07:43:04 51°17.068 2°52.992 301.1 12.2 302 10
2011-09-20 07:43:09 51°17.077 2°52.969 300.6 12.2 301 10.1
2011-09-20 07:43:14 51°17.085 2°52.946 299.5 12.2 301 10.1
2011-09-20 07:43:19 51°17.094 2°52.922 298.6 12.2 300 10.5
2011-09-20 07:43:24 51°17.102 2°52.899 298.3 12.2 300 10.5
2011-09-20 07:43:29 51°17.111 2°52.876 298.4 12.2 300 10.3
2011-09-20 07:43:34 51°17.119 2°52.852 298.3 12.2 299 11
2011-09-20 07:43:39 51°17.127 2°52.828 297.7 12.3 298 10.6
2011-09-20 07:43:45 51°17.137 2°52.8 297.1 12.3 300 10.4
2011-09-20 07:43:49 51°17.144 2°52.781 298.4 12.2 301 10.5
2011-09-20 07:43:54 51°17.153 2°52.758 299.4 12.3 301 10.7
2011-09-20 07:43:59 51°17.162 2°52.735 299.8 12.2 301 10.6
2011-09-20 07:44:04 51°17.171 2°52.712 300.4 12.3 303 10.5
2011-09-20 07:44:10 51°17.183 2°52.685 301.5 12.3 303 10.5
2011-09-20 07:44:14 51°17.19 2°52.667 302 12.3 303 10.6
2011-09-20 07:44:19 51°17.199 2°52.644 301.8 12.2 302 10.4
2011-09-20 07:44:24 51°17.208 2°52.62 300.6 12.3 301 10.6
2011-09-20 07:44:30 51°17.218 2°52.593 300.2 12.3 302 10.8
2011-09-20 07:44:34 51°17.226 2°52.574 300.5 12.2 302 11.2
2011-09-20 07:44:39 51°17.235 2°52.551 300.7 12.3 302 10.9
2011-09-20 07:44:45 51°17.246 2°52.524 300.5 12.2 302 10.8
2011-09-20 07:44:50 51°17.255 2°52.501 300.5 12.2 303 10.9
2011-09-20 07:44:54 51°17.262 2°52.483 301.8 12.3 304 11.2
2011-09-20 07:44:59 51°17.272 2°52.46 302.4 12.3 304 11.2
2011-09-20 07:45:04 51°17.282 2°52.438 302.7 12.3 305 11.3
2011-09-20 07:45:10 51°17.294 2°52.412 303.5 12.2 306 10.7
2011-09-20 07:45:14 51°17.302 2°52.395 304.5 12.3 307 11.5
2011-09-20 07:45:19 51°17.312 2°52.373 305.6 12.2 307 10.9
2011-09-20 07:45:24 51°17.323 2°52.352 306.1 12.3 307 11.4
2011-09-20 07:45:29 51°17.333 2°52.33 306.4 12.3 308 11.3
2011-09-20 07:45:34 51°17.344 2°52.308 306.8 12.4 308 11.3
2011-09-20 07:45:39 51°17.355 2°52.287 307.8 12.4 311 11.4
2011-09-20 07:45:44 51°17.367 2°52.267 309.1 12.5 312 12.1
2011-09-20 07:45:49 51°17.378 2°52.247 310.8 12.2 314 11.5
2011-09-20 07:45:54 51°17.39 2°52.228 312.8 12.3 315 12.2
2011-09-20 07:45:59 51°17.402 2°52.209 313.4 12.3 314 12.1
2011-09-20 07:46:04 51°17.414 2°52.19 313.6 12.3 316 12.5
2011-09-20 07:46:09 51°17.426 2°52.17 314.5 12.2 315 11.8
2011-09-20 07:46:14 51°17.438 2°52.151 313.6 12.3 314 12
2011-09-20 07:46:19 51°17.45 2°52.132 313.8 12.3 315 12.3
2011-09-20 07:46:25 51°17.465 2°52.109 314.4 12.3 316 12
2011-09-20 07:46:29 51°17.474 2°52.094 314.8 12.3 316 12.1
2011-09-20 07:46:34 51°17.487 2°52.075 315.2 12.3 317 12.1
2011-09-20 07:46:39 51°17.499 2°52.057 316.5 12.4 317 12
2011-09-20 07:46:44 51°17.512 2°52.038 317.1 12.4 318 11.9
2011-09-20 07:46:50 51°17.528 2°52.017 317.8 12.4 319 11.9
2011-09-20 07:46:54 51°17.538 2°52.002 318.7 12.4 319 11.3
2011-09-20 07:46:59 51°17.551 2°51.984 318.7 12.5 319 11.4
2011-09-20 07:47:04 51°17.565 2°51.966 318.9 12.4 320 11.5
2011-09-20 07:47:10 51°17.58 2°51.945 319.5 12.5 320 11.3
2011-09-20 07:47:14 51°17.591 2°51.93 319.1 12.5 319 11.2
2011-09-20 07:47:19 51°17.604 2°51.912 319 12.4 319 11.3
2011-09-20 07:47:24 51°17.617 2°51.894 318.6 12.5 318 11.3
2011-09-20 07:47:29 51°17.63 2°51.875 318 12.4 319 11
2011-09-20 07:47:34 51°17.643 2°51.857 317.9 12.4 318 11
2011-09-20 07:47:39 51°17.655 2°51.839 317.3 12.4 318 11.4
2011-09-20 07:47:44 51°17.668 2°51.819 315.9 12.4 316 11
2011-09-20 07:47:49 51°17.68 2°51.8 315.1 12.3 316 11
2011-09-20 07:47:54 51°17.692 2°51.781 314.7 12.3 315 10.9
2011-09-20 07:47:59 51°17.704 2°51.762 314.5 12.3 316 11.4
2011-09-20 07:48:04 51°17.716 2°51.742 313.6 12.3 315 10.6
2011-09-20 07:48:09 51°17.728 2°51.723 313.6 12.3 314 10.8
2011-09-20 07:48:14 51°17.739 2°51.703 313 12.3 314 10.8
2011-09-20 07:48:19 51°17.752 2°51.684 313.6 12.4 315 10.9
2011-09-20 07:48:25 51°17.767 2°51.661 314.2 12.5 317 11.1
2011-09-20 07:48:29 51°17.777 2°51.647 315.9 12.4 318 10.6
2011-09-20 07:48:34 51°17.79 2°51.629 317.5 12.4 320 10.9
2011-09-20 07:48:39 51°17.803 2°51.612 319.6 12.3 321 10.8
2011-09-20 07:48:44 51°17.817 2°51.594 319.9 12.3 321 10.5
2011-09-20 07:48:50 51°17.833 2°51.575 320.2 12.3 323 10.5
2011-09-20 07:48:54 51°17.844 2°51.561 321.2 12.3 321 11.2
2011-09-20 07:48:59 51°17.857 2°51.544 320.5 12.3 322 10.9
2011-09-20 07:49:05 51°17.873 2°51.524 320.8 12.3 322 11.2
2011-09-20 07:49:09 51°17.884 2°51.511 321.6 12.4 323 11.5
2011-09-20 07:49:14 51°17.898 2°51.494 321.8 12.4 323 11.1
2011-09-20 07:49:19 51°17.911 2°51.478 322.1 12.4 323 11.5
2011-09-20 07:49:25 51°17.928 2°51.458 322.3 12.5 323 11.6
2011-09-20 07:49:30 51°17.942 2°51.442 323.1 12.4 323 11.3
2011-09-20 07:49:34 51°17.953 2°51.429 323.4 12.4 324 11.6
2011-09-20 07:49:39 51°17.967 2°51.413 323.5 12.5 324 11.8
2011-09-20 07:49:44 51°17.981 2°51.396 323.1 12.4 324 11.1
2011-09-20 07:49:50 51°17.997 2°51.377 322.3 12.4 324 12
2011-09-20 07:49:54 51°18.009 2°51.365 323.5 12.4 326 11.8
2011-09-20 07:49:59 51°18.022 2°51.348 323.5 12.4 324 12.2
2011-09-20 07:50:04 51°18.036 2°51.332 323.7 12.4 324 12
2011-09-20 07:50:10 51°18.053 2°51.313 323.7 12.4 325 11.9
2011-09-20 07:50:14 51°18.065 2°51.301 324.3 12.4 326 12.6
2011-09-20 07:50:19 51°18.079 2°51.285 325 12.5 326 12.1
2011-09-20 07:50:24 51°18.094 2°51.271 325.8 12.5 329 12.9
2011-09-20 07:50:30 51°18.111 2°51.254 327.3 12.5 328 12.7
2011-09-20 07:50:34 51°18.123 2°51.242 327.4 12.5 327 12.8
2011-09-20 07:50:39 51°18.138 2°51.227 327.4 12.6 328 12.9
2011-09-20 07:50:45 51°18.155 2°51.209 327.7 12.6 328 12.9
2011-09-20 07:50:49 51°18.167 2°51.197 327.4 12.5 327 13
2011-09-20 07:50:54 51°18.182 2°51.182 326.7 12.5 327 13.6
2011-09-20 07:50:59 51°18.196 2°51.166 326 12.5 326 13.2
2011-09-20 07:51:04 51°18.21 2°51.15 325.5 12.5 325 13.1
2011-09-20 07:51:10 51°18.227 2°51.131 325 12.5 325 13.5
2011-09-20 07:51:14 51°18.238 2°51.119 324.7 12.3 325 13.4
2011-09-20 07:51:18 51°18.249 2°51.107 324.9 11.6 325 13
2011-09-20 07:51:25 51°18.267 2°51.088 325.4 11 326 13.7
2011-09-20 07:51:29 51°18.276 2°51.077 325.1 10.6 326 14
2011-09-20 07:51:34 51°18.288 2°51.065 324.7 10.2 327 13.3
2011-09-20 07:51:39 51°18.299 2°51.053 325.5 9.6 326 13.7
2011-09-20 07:51:44 51°18.31 2°51.042 326 9.3 327 14.4
2011-09-20 07:51:50 51°18.323 2°51.03 326 9.1 328 14.2
2011-09-20 07:51:54 51°18.332 2°51.021 326 8.9 329 14.5
2011-09-20 07:51:59 51°18.343 2°51.012 327.5 8.8 333 14.3
2011-09-20 07:52:04 51°18.353 2°51.004 329.6 8.4 335 14.1
2011-09-20 07:52:10 51°18.366 2°50.998 335.8 7.7 345 14.2
2011-09-20 07:52:14 51°18.373 2°50.996 343.4 7.2 349 14.4
2011-09-20 07:52:19 51°18.383 2°50.994 349.6 6.5 356 14.4
2011-09-20 07:52:24 51°18.391 2°50.994 355 6.1 359 14.6
2011-09-20 07:52:29 51°18.399 2°50.995 0.1 5.7 4 14.6
2011-09-20 07:52:34 51°18.407 2°50.996 5.1 5.6 7 14.6
2011-09-20 07:52:39 51°18.414 2°50.998 8.8 5.4 8 14.5
2011-09-20 07:52:44 51°18.422 2°51 11 5.3 13 14.6
2011-09-20 07:52:49 51°18.429 2°51.003 12.3 5.1 11 14.4
2011-09-20 07:52:54 51°18.435 2°51.005 12.3 5 9 14.3
2011-09-20 07:52:59 51°18.442 2°51.007 11.3 4.9 12 14.2
2011-09-20 07:53:04 51°18.448 2°51.009 11.2 4.8 8 14.1
2011-09-20 07:53:10 51°18.456 2°51.011 9.9 4.7 10 14.5
2011-09-20 07:53:14 51°18.461 2°51.012 8 4.6 8 14.6
2011-09-20 07:53:19 51°18.467 2°51.013 6.4 4.3 7 14.7
2011-09-20 07:53:25 51°18.474 2°51.014 4.3 4.1 7 14.3
2011-09-20 07:53:29 51°18.478 2°51.015 2.9 3.9 3 14.3
2011-09-20 07:53:34 51°18.483 2°51.016 1.5 3.8 5 14.5
2011-09-20 07:53:39 51°18.488 2°51.016 359.8 3.4 4 14.3
2011-09-20 07:53:44 51°18.493 2°51.017 358.9 3 3 14.7
2011-09-20 07:53:50 51°18.497 2°51.017 358.8 2.7 7 14.7
2011-09-20 07:53:54 51°18.5 2°51.018 359.6 2.3 7 14.7
2011-09-20 07:53:59 51°18.503 2°51.019 1.7 2.1 10 14.5
2011-09-20 07:54:04 51°18.505 2°51.02 3.7 1.7 9 14.4
2011-09-20 07:54:10 51°18.507 2°51.021 6.1 1.4 16 14.6
2011-09-20 07:54:14 51°18.508 2°51.022 7.7 1.1 20 14.6
2011-09-20 07:54:19 51°18.509 2°51.023 9.1 0.6 34 14.4
2011-09-20 07:54:24 51°18.509 2°51.023 10.3 0.3 53 14.5
2011-09-20 07:54:30 51°18.51 2°51.024 12.4 0.3 64 14.6
2011-09-20 07:54:34 51°18.51 2°51.024 14.2 0.4 48 14.5
2011-09-20 07:54:39 51°18.51 2°51.025 15.5 0.4 49 14.7
2011-09-20 07:54:44 51°18.51 2°51.025 16.4 0.5 43 15
2011-09-20 07:54:49 51°18.511 2°51.026 16.8 0.5 55 15
2011-09-20 07:54:54 51°18.512 2°51.026 17.3 0.5 23 14.9
2011-09-20 07:54:59 51°18.512 2°51.027 17.8 0.6 37 14.4
2011-09-20 07:55:04 51°18.513 2°51.028 17.7 0.7 23 14.7
2011-09-20 07:55:10 51°18.514 2°51.03 17.1 0.7 39 14.8
2011-09-20 07:55:14 51°18.515 2°51.031 17.1 0.8 44 14.8
2011-09-20 07:55:19 51°18.516 2°51.032 17.7 0.8 34 14.8
2011-09-20 07:55:25 51°18.517 2°51.033 17.6 0.9 38 14.8
2011-09-20 07:55:29 51°18.518 2°51.034 17.5 0.9 40 15
2011-09-20 07:55:34 51°18.519 2°51.034 17.5 0.9 26 14.8
2011-09-20 07:55:39 51°18.52 2°51.036 17.4 0.9 27 14.7
2011-09-20 07:55:44 51°18.521 2°51.037 17.1 1 30 14.7
2011-09-20 07:55:50 51°18.522 2°51.038 16.7 1 31 14.7
2011-09-20 07:55:54 51°18.523 2°51.039 16.9 1.1 38 15.1
2011-09-20 07:55:59 51°18.525 2°51.04 16.7 1.1 28 15.1
2011-09-20 07:56:05 51°18.526 2°51.042 16.1 1.1 31 14.8
2011-09-20 07:56:10 51°18.528 2°51.043 15.8 1.1 28 14.6
2011-09-20 07:56:14 51°18.529 2°51.044 15.5 1.1 28 14.6
2011-09-20 07:56:19 51°18.531 2°51.045 14.7 1.2 29 14.7
2011-09-20 07:56:24 51°18.532 2°51.047 13.8 1.3 27 14.9
2011-09-20 07:56:30 51°18.534 2°51.048 12.4 1.3 28 14.8
2011-09-20 07:56:34 51°18.535 2°51.049 11 1.4 30 14.8
2011-09-20 07:56:39 51°18.537 2°51.05 9.9 1.3 22 14.8
2011-09-20 07:56:44 51°18.538 2°51.051 8.7 1.3 25 14.7
2011-09-20 07:56:49 51°18.54 2°51.052 7.3 1.3 20 14.4
2011-09-20 07:56:54 51°18.542 2°51.053 5.2 1.3 16 14.3
2011-09-20 07:56:58 51°18.543 2°51.055 3.9 1.3 19 14.3
2011-09-20 07:57:04 51°18.545 2°51.056 2.6 1.3 20 14.5
2011-09-20 07:57:09 51°18.547 2°51.057 1 1.2 19 14.6
2011-09-20 07:57:14 51°18.548 2°51.058 359.9 1.3 25 14.7
2011-09-20 07:57:19 51°18.55 2°51.059 357.7 1.4 25 14.9
2011-09-20 07:57:24 51°18.552 2°51.06 356 1.3 19 14.7
2011-09-20 07:57:30 51°18.554 2°51.061 355.2 1.2 16 14.9
2011-09-20 07:57:34 51°18.555 2°51.062 353.9 1.2 20 14.9
2011-09-20 07:57:39 51°18.557 2°51.063 353.5 1.3 27 14.7
2011-09-20 07:57:45 51°18.559 2°51.064 352.2 1.3 20 14.7
2011-09-20 07:57:49 51°18.56 2°51.065 351.3 1.2 15 15
2011-09-20 07:57:54 51°18.561 2°51.065 350.7 1.2 18 14.9
2011-09-20 07:57:59 51°18.563 2°51.066 349.9 1.2 15 14.9
2011-09-20 07:58:04 51°18.565 2°51.066 348.4 1.2 11 14.5
2011-09-20 07:58:10 51°18.567 2°51.067 347.7 1.2 19 14.5
2011-09-20 07:58:14 51°18.568 2°51.068 347 1.2 18 14.6
2011-09-20 07:58:19 51°18.569 2°51.068 347 1.2 17 14.8
2011-09-20 07:58:25 51°18.571 2°51.069 346.7 1.1 18 14.7
2011-09-20 07:58:30 51°18.573 2°51.07 346.1 1.1 12 14.6
2011-09-20 07:58:34 51°18.574 2°51.07 345.2 1.1 11 14.6
2011-09-20 07:58:39 51°18.575 2°51.071 344.1 1.1 15 14.6
2011-09-20 07:58:44 51°18.577 2°51.071 343.1 1.1 16 14.8
2011-09-20 07:58:49 51°18.579 2°51.072 341.7 1.1 14 15
2011-09-20 07:58:54 51°18.58 2°51.072 340.2 1 13 14.9
2011-09-20 07:58:59 51°18.582 2°51.073 339.6 1.1 13 14.8
2011-09-20 07:59:04 51°18.583 2°51.074 338.3 1 16 14.6
2011-09-20 07:59:09 51°18.584 2°51.075 337.6 0.9 15 14.4
2011-09-20 07:59:14 51°18.586 2°51.075 337 1.1 14 14.4
2011-09-20 07:59:19 51°18.587 2°51.076 335.7 1 14 14.4
2011-09-20 07:59:24 51°18.588 2°51.076 334.5 0.9 15 14.5
2011-09-20 07:59:30 51°18.59 2°51.077 333.3 1 19 14.9
2011-09-20 07:59:34 51°18.591 2°51.078 332.1 1 22 15.1
2011-09-20 07:59:39 51°18.593 2°51.078 331.1 1.4 12 15.4
2011-09-20 07:59:45 51°18.596 2°51.078 331.4 1.6 1 14.9
2011-09-20 07:59:49 51°18.598 2°51.078 333.3 2.1 355 14.7
2011-09-20 07:59:54 51°18.601 2°51.078 336.8 2.5 353 14.7
2011-09-20 07:59:59 51°18.605 2°51.077 342.8 2.9 353 14.8
2011-09-20 08:00:05 51°18.611 2°51.077 347.6 3.4 -999 14.8
2011-09-20 08:00:10 51°18.616 2°51.078 354.3 3.8 3 14.8
2011-09-20 08:00:14 51°18.621 2°51.079 1.5 4 8 14.8
2011-09-20 08:00:19 51°18.627 2°51.081 8.9 4.3 14 14.6
2011-09-20 08:00:25 51°18.633 2°51.086 16.8 4.4 24 14.8
2011-09-20 08:00:30 51°18.639 2°51.091 25.1 4.7 30 14.9
2011-09-20 08:00:34 51°18.644 2°51.096 34.6 5 34 14.9
2011-09-20 08:00:39 51°18.649 2°51.104 40.8 5.3 41 14.7
2011-09-20 08:00:45 51°18.655 2°51.115 46.9 5.7 47 14.8
2011-09-20 08:00:49 51°18.66 2°51.123 51.5 6.1 53 15
2011-09-20 08:00:54 51°18.666 2°51.135 55.8 6.7 52 14.7
2011-09-20 08:00:59 51°18.67 2°51.149 59.5 7.2 59 14.8
2011-09-20 08:01:04 51°18.676 2°51.164 61.8 7.8 62 15
2011-09-20 08:01:09 51°18.68 2°51.18 66.4 8.2 64 15
2011-09-20 08:01:14 51°18.685 2°51.198 69 8.5 66 15
2011-09-20 08:01:19 51°18.69 2°51.216 71.5 9 69 15.1
2011-09-20 08:01:24 51°18.695 2°51.235 71 9.5 68 14.7
2011-09-20 08:01:29 51°18.699 2°51.257 72 10.2 71 15
2011-09-20 08:01:34 51°18.705 2°51.278 71.8 10.4 67 14.9
2011-09-20 08:01:39 51°18.709 2°51.301 72.9 11 70 14.8
2011-09-20 08:01:45 51°18.717 2°51.329 71.5 11.3 67 15
2011-09-20 08:01:49 51°18.721 2°51.347 70.3 11.4 70 14.8
2011-09-20 08:01:54 51°18.727 2°51.372 71.4 11.8 68 14.8
2011-09-20 08:01:59 51°18.734 2°51.396 70.8 11.9 67 14.7
2011-09-20 08:02:04 51°18.74 2°51.421 70.5 12.2 69 15
2011-09-20 08:02:10 51°18.748 2°51.451 69.8 12.1 65 14.7
2011-09-20 08:02:14 51°18.752 2°51.471 69.9 12.2 71 14.8
2011-09-20 08:02:19 51°18.759 2°51.497 70.8 12.6 67 14.7
2011-09-20 08:02:25 51°18.767 2°51.528 70.7 12.5 67 15
2011-09-20 08:02:29 51°18.773 2°51.548 69.8 12.3 68 14.9
2011-09-20 08:02:34 51°18.78 2°51.573 69.5 12.4 65 14.5
2011-09-20 08:02:39 51°18.787 2°51.598 68 12.6 67 14.6
2011-09-20 08:02:44 51°18.794 2°51.623 68.3 12.4 67 14.8
2011-09-20 08:02:50 51°18.802 2°51.653 69 12.3 66 14.5
2011-09-20 08:02:54 51°18.808 2°51.673 68.3 12.5 65 14.6
2011-09-20 08:02:59 51°18.816 2°51.698 65.8 12.4 63 14.7
2011-09-20 08:03:04 51°18.822 2°51.723 66.8 12.2 68 14.3
2011-09-20 08:03:10 51°18.83 2°51.753 69.8 12.5 68 14.5
2011-09-20 08:03:14 51°18.836 2°51.773 68.9 12.5 65 14.4
2011-09-20 08:03:19 51°18.842 2°51.799 68.6 12.4 69 14.4
2011-09-20 08:03:24 51°18.849 2°51.825 70.5 12.6 67 14.5
2011-09-20 08:03:29 51°18.855 2°51.85 70 12.4 69 14.2
2011-09-20 08:03:34 51°18.862 2°51.876 70.5 12.4 67 14.3
2011-09-20 08:03:39 51°18.869 2°51.9 68.3 12.4 67 14.3
2011-09-20 08:03:45 51°18.876 2°51.932 70.8 12.5 70 14.3
2011-09-20 08:03:49 51°18.881 2°51.953 71.9 12.5 67 14.4
2011-09-20 08:03:54 51°18.887 2°51.978 70.3 12.3 68 14.3
2011-09-20 08:03:59 51°18.893 2°52.004 71.8 12.5 71 14.3
2011-09-20 08:04:04 51°18.899 2°52.03 71.8 12.6 71 14.3
2011-09-20 08:04:10 51°18.906 2°52.062 73 12.5 69 14.1
2011-09-20 08:04:14 51°18.911 2°52.082 72.1 12.4 68 14
2011-09-20 08:04:19 51°18.917 2°52.108 71.5 12.4 67 14.3
2011-09-20 08:04:25 51°18.925 2°52.138 69 12.4 70 13.9
2011-09-20 08:04:29 51°18.929 2°52.159 71.4 12.6 68 14
2011-09-20 08:04:34 51°18.937 2°52.184 69.9 12.5 65 14
2011-09-20 08:04:39 51°18.942 2°52.21 70.2 12.3 72 14.1
2011-09-20 08:04:44 51°18.95 2°52.235 69.6 12.4 64 13.9
2011-09-20 08:04:50 51°18.957 2°52.265 68.5 12.2 70 14
2011-09-20 08:04:54 51°18.962 2°52.286 71.1 12.4 69 13.8
2011-09-20 08:04:59 51°18.968 2°52.312 71.1 12.5 68 13.8
2011-09-20 08:05:05 51°18.977 2°52.341 68.7 12.3 67 13.8
2011-09-20 08:05:10 51°18.982 2°52.368 70.5 12.5 70 13.8
2011-09-20 08:05:14 51°18.988 2°52.388 71.4 12.5 68 13.7
2011-09-20 08:05:19 51°18.993 2°52.414 71.3 12.5 70 13.6
2011-09-20 08:05:24 51°18.999 2°52.44 72.5 12.5 68 13.8
2011-09-20 08:05:29 51°19.006 2°52.465 70.9 12.3 71 13.6
2011-09-20 08:05:34 51°19.011 2°52.492 72.2 12.6 70 13.5
2011-09-20 08:05:39 51°19.018 2°52.517 71.5 12.5 68 13.7
2011-09-20 08:05:44 51°19.024 2°52.542 71 12.2 69 13.5
2011-09-20 08:05:50 51°19.031 2°52.573 71 12.4 68 13.7
2011-09-20 08:05:54 51°19.037 2°52.593 69.9 12.5 67 13.6
2011-09-20 08:05:59 51°19.044 2°52.618 69.1 12.5 65 13.5
2011-09-20 08:06:04 51°19.051 2°52.643 67.6 12.3 65 13.4
2011-09-20 08:06:09 51°19.059 2°52.668 66.7 12.3 64 13.4
2011-09-20 08:06:14 51°19.066 2°52.693 67.2 12.5 66 13.5
2011-09-20 08:06:19 51°19.074 2°52.717 66.5 12.4 64 13.5
2011-09-20 08:06:24 51°19.08 2°52.743 67.7 12.3 66 13.4
2011-09-20 08:06:29 51°19.087 2°52.768 68.2 12.4 66 13.4
2011-09-20 08:06:34 51°19.094 2°52.793 68.9 12.5 66 13.4
2011-09-20 08:06:39 51°19.101 2°52.819 68.7 12.5 67 13.4
2011-09-20 08:06:44 51°19.107 2°52.844 69.3 12.3 67 13.4
2011-09-20 08:06:50 51°19.114 2°52.875 70.4 12.3 70 13.4
2011-09-20 08:06:54 51°19.12 2°52.895 71.2 12.5 67 13.3
2011-09-20 08:06:59 51°19.127 2°52.921 69.3 12.7 67 13.2
2011-09-20 08:07:05 51°19.135 2°52.952 68.7 12.7 68 13.2
2011-09-20 08:07:09 51°19.14 2°52.973 69.7 12.5 68 13.2
2011-09-20 08:07:14 51°19.146 2°52.998 70.5 12.5 68 13
2011-09-20 08:07:19 51°19.154 2°53.024 69.8 12.7 66 13
2011-09-20 08:07:25 51°19.162 2°53.055 68.4 12.5 67 13.2
2011-09-20 08:07:30 51°19.168 2°53.08 69 12.3 68 13.1
2011-09-20 08:07:34 51°19.174 2°53.1 69.5 12.2 67 13
2011-09-20 08:07:39 51°19.179 2°53.126 71.2 12.5 72 13.3
2011-09-20 08:07:44 51°19.187 2°53.151 70 12.3 64 13.1
2011-09-20 08:07:50 51°19.193 2°53.181 69.5 12 72 13.1
2011-09-20 08:07:54 51°19.198 2°53.201 71.2 12.1 69 13
2011-09-20 08:07:59 51°19.204 2°53.227 71.4 12.3 69 13
2011-09-20 08:08:04 51°19.21 2°53.251 70.8 12.1 68 12.7
2011-09-20 08:08:09 51°19.215 2°53.277 71.3 12.2 71 12.8
2011-09-20 08:08:14 51°19.222 2°53.302 71.4 12.2 67 13.1
2011-09-20 08:08:19 51°19.228 2°53.328 70.8 12.2 70 13
2011-09-20 08:08:24 51°19.235 2°53.352 70.6 12.3 66 13
2011-09-20 08:08:29 51°19.241 2°53.378 69.9 12.2 70 13
2011-09-20 08:08:34 51°19.247 2°53.403 70.3 12.2 69 12.9
2011-09-20 08:08:39 51°19.252 2°53.429 72.1 12.2 71 12.9
2011-09-20 08:08:44 51°19.257 2°53.454 72.9 12.1 70 13
2011-09-20 08:08:50 51°19.265 2°53.484 71.8 12.3 68 12.9
2011-09-20 08:08:54 51°19.27 2°53.504 70.3 12.2 68 13
2011-09-20 08:08:59 51°19.276 2°53.529 70.1 12.1 72 12.9
2011-09-20 08:09:05 51°19.283 2°53.56 72.5 12.3 69 12.8
2011-09-20 08:09:09 51°19.288 2°53.58 71.2 12.3 69 13
2011-09-20 08:09:14 51°19.295 2°53.605 70.3 12.3 68 13
2011-09-20 08:09:19 51°19.301 2°53.632 70.4 12.7 70 13.1
2011-09-20 08:09:24 51°19.308 2°53.657 69.4 12.2 65 13
2011-09-20 08:09:30 51°19.314 2°53.687 69.2 12 71 12.6
2011-09-20 08:09:34 51°19.32 2°53.708 71.8 12.7 69 12.9
2011-09-20 08:09:39 51°19.328 2°53.733 68.5 12.7 64 13.1
2011-09-20 08:09:44 51°19.333 2°53.758 68.4 11.9 70 12.8
2011-09-20 08:09:50 51°19.341 2°53.788 70.5 12.4 68 12.7
2011-09-20 08:09:54 51°19.347 2°53.809 69.5 12.8 66 13
2011-09-20 08:09:59 51°19.354 2°53.834 67.6 12.4 66 12.9
2011-09-20 08:10:04 51°19.359 2°53.859 70.2 12.1 68 12.7
2011-09-20 08:10:10 51°19.368 2°53.889 69.2 12.4 67 12.9
2011-09-20 08:10:14 51°19.373 2°53.908 68.1 12.2 66 13.1
2011-09-20 08:10:19 51°19.38 2°53.932 67.4 11.9 67 12.9
2011-09-20 08:10:24 51°19.386 2°53.958 69 12.3 67 13.1
2011-09-20 08:10:29 51°19.394 2°53.982 67.7 12.3 65 12.7
2011-09-20 08:10:34 51°19.4 2°54.008 67.8 12.3 68 12.8
2011-09-20 08:10:38 51°19.406 2°54.027 68.1 12.3 65 12.9
2011-09-20 08:10:45 51°19.416 2°54.062 68.1 12.2 66 12.7
2011-09-20 08:10:49 51°19.421 2°54.083 68.5 12.4 67 12.9
2011-09-20 08:10:54 51°19.429 2°54.107 67.8 12.4 64 12.8
2011-09-20 08:10:59 51°19.435 2°54.132 67.3 12.2 67 12.9
2011-09-20 08:11:04 51°19.442 2°54.158 68.2 12.4 67 12.8
2011-09-20 08:11:10 51°19.449 2°54.188 68.9 12.4 68 12.9
2011-09-20 08:11:14 51°19.455 2°54.208 69.5 12.2 68 12.6
2011-09-20 08:11:19 51°19.46 2°54.234 71 12.5 68 12.7
2011-09-20 08:11:25 51°19.47 2°54.264 68.3 12.6 64 12.8
2011-09-20 08:11:29 51°19.475 2°54.284 67.1 12.3 66 12.8
2011-09-20 08:11:34 51°19.483 2°54.308 66.6 12.2 64 12.9
2011-09-20 08:11:39 51°19.49 2°54.333 65.2 12.3 63 12.9
2011-09-20 08:11:44 51°19.498 2°54.357 65.4 12.4 65 12.8
2011-09-20 08:11:50 51°19.507 2°54.386 65.2 12.3 63 12.9
2011-09-20 08:11:54 51°19.514 2°54.405 64.4 12.3 62 12.8
2011-09-20 08:11:59 51°19.52 2°54.431 66.3 12.2 68 13
2011-09-20 08:12:04 51°19.527 2°54.455 67.2 12.3 65 12.9
2011-09-20 08:12:10 51°19.536 2°54.485 67.2 12.4 64 12.9
2011-09-20 08:12:14 51°19.542 2°54.505 66.1 12.4 65 13.1
2011-09-20 08:12:19 51°19.549 2°54.529 65.4 12.2 64 13
2011-09-20 08:12:24 51°19.556 2°54.554 66.5 12.3 66 12.8
2011-09-20 08:12:29 51°19.564 2°54.579 67.2 12.6 64 13
2011-09-20 08:12:34 51°19.571 2°54.604 66.2 12.3 64 12.9
2011-09-20 08:12:39 51°19.578 2°54.628 66.9 12 68 12.8
2011-09-20 08:12:45 51°19.586 2°54.659 69.4 12.5 67 12.9
2011-09-20 08:12:49 51°19.591 2°54.679 68.2 12.3 67 13
2011-09-20 08:12:54 51°19.597 2°54.704 69.5 12 70 12.9
2011-09-20 08:12:59 51°19.603 2°54.728 70.4 12.1 67 12.7
2011-09-20 08:13:05 51°19.611 2°54.759 69.6 12.5 68 13
2011-09-20 08:13:09 51°19.617 2°54.779 68.6 12.3 66 13.2
2011-09-20 08:13:14 51°19.623 2°54.803 67 11.9 67 12.9
2011-09-20 08:13:19 51°19.629 2°54.828 69.4 12.2 68 12.8
2011-09-20 08:13:24 51°19.637 2°54.853 67.6 12.4 66 13
2011-09-20 08:13:30 51°19.644 2°54.883 67.9 12 70 13
2011-09-20 08:13:34 51°19.648 2°54.903 71.1 11.9 70 12.9
2011-09-20 08:13:39 51°19.655 2°54.928 70.9 12.4 67 12.9
2011-09-20 08:13:45 51°19.662 2°54.959 69.6 12.4 70 12.9
2011-09-20 08:13:49 51°19.667 2°54.979 70.4 12.2 69 12.9
2011-09-20 08:13:54 51°19.673 2°55.004 70.6 12.1 70 12.8
2011-09-20 08:13:59 51°19.678 2°55.029 71.9 12.2 70 12.8
2011-09-20 08:14:05 51°19.686 2°55.059 71.2 12.1 70 12.8
2011-09-20 08:14:10 51°19.692 2°55.084 71.1 12.1 69 12.8
2011-09-20 08:14:14 51°19.696 2°55.105 70.9 12.2 70 12.9
2011-09-20 08:14:19 51°19.702 2°55.131 71.4 12.4 70 12.9
2011-09-20 08:14:24 51°19.709 2°55.155 70.4 12.2 67 12.8
2011-09-20 08:14:30 51°19.716 2°55.186 70.5 12.4 70 12.9
2011-09-20 08:14:34 51°19.722 2°55.206 69.6 12.5 66 12.9
2011-09-20 08:14:39 51°19.728 2°55.232 69 12.4 69 12.8
2011-09-20 08:14:44 51°19.734 2°55.257 69.2 12.4 66 12.8
2011-09-20 08:14:49 51°19.741 2°55.282 68.2 12.4 68 12.8
2011-09-20 08:14:54 51°19.748 2°55.307 68.8 12.4 66 13
2011-09-20 08:14:59 51°19.756 2°55.331 67.2 12.1 64 12.7
2011-09-20 08:15:05 51°19.763 2°55.361 67 12.2 67 12.7
2011-09-20 08:15:09 51°19.769 2°55.381 67.1 12.4 66 12.8
2011-09-20 08:15:14 51°19.775 2°55.406 68.1 12.2 68 12.7
2011-09-20 08:15:19 51°19.781 2°55.431 70.6 12.2 71 12.8
2011-09-20 08:15:24 51°19.787 2°55.457 71.2 12.1 68 12.9
2011-09-20 08:15:30 51°19.794 2°55.487 70.4 12.2 71 12.7
2011-09-20 08:15:34 51°19.799 2°55.507 71.2 12.4 68 12.7
2011-09-20 08:15:39 51°19.805 2°55.533 69.7 12.3 71 12.5
2011-09-20 08:15:45 51°19.811 2°55.564 72.2 12.4 72 12.7
2011-09-20 08:15:49 51°19.816 2°55.585 72.6 12.5 70 12.2
2011-09-20 08:15:54 51°19.821 2°55.611 72.3 12.4 73 13
2011-09-20 08:15:59 51°19.827 2°55.637 72.6 12.3 72 12.7
2011-09-20 08:16:04 51°19.831 2°55.663 75.5 12.3 73 12.7
2011-09-20 08:16:10 51°19.839 2°55.694 73.9 12.4 69 12.6
2011-09-20 08:16:14 51°19.842 2°55.715 72.9 12.5 75 12.9
2011-09-20 08:16:18 51°19.847 2°55.736 73.1 12.4 70 12.9
2011-09-20 08:16:25 51°19.854 2°55.772 72.7 12 73 12.8
2011-09-20 08:16:29 51°19.859 2°55.792 73.1 12 70 12.6
2011-09-20 08:16:34 51°19.864 2°55.818 72.6 12.3 72 12.8
2011-09-20 08:16:39 51°19.87 2°55.843 71.9 12.2 69 12.6
2011-09-20 08:16:44 51°19.875 2°55.868 71.3 12 73 12.7
2011-09-20 08:16:50 51°19.882 2°55.898 72.7 12.1 70 12.6
2011-09-20 08:16:54 51°19.885 2°55.919 73.3 12.2 75 12.8
2011-09-20 08:16:58 51°19.888 2°55.94 76 12.1 73 12.7
2011-09-20 08:17:04 51°19.894 2°55.971 75.6 12.1 77 12.6
2011-09-20 08:17:09 51°19.898 2°55.998 77.2 12.3 76 12.6
2011-09-20 08:17:14 51°19.902 2°56.024 77.4 12.3 77 12.7
2011-09-20 08:17:19 51°19.905 2°56.051 79.1 12.4 80 12.7
2011-09-20 08:17:24 51°19.908 2°56.078 81.1 12.2 78 12.6
2011-09-20 08:17:29 51°19.911 2°56.104 80 12 79 12.5
2011-09-20 08:17:34 51°19.915 2°56.13 79.4 12.3 78 12.5
2011-09-20 08:17:39 51°19.919 2°56.158 78.3 12.6 77 12.5
2011-09-20 08:17:45 51°19.923 2°56.19 78 12.4 77 12.7
2011-09-20 08:17:49 51°19.926 2°56.211 78.6 12.2 78 12.5
2011-09-20 08:17:54 51°19.93 2°56.238 79 12.3 77 12.6
2011-09-20 08:17:59 51°19.934 2°56.264 77.9 12.3 77 12.5
2011-09-20 08:18:05 51°19.938 2°56.296 78.5 12.3 78 12.5
2011-09-20 08:18:10 51°19.941 2°56.323 79.3 12.2 80 12.6
2011-09-20 08:18:14 51°19.944 2°56.344 80.4 12 78 12.5
2011-09-20 08:18:19 51°19.947 2°56.369 79.6 11.9 79 12.4
2011-09-20 08:18:25 51°19.951 2°56.402 80.6 12.4 77 12.5
2011-09-20 08:18:30 51°19.955 2°56.428 77.7 12.3 77 12.4
2011-09-20 08:18:34 51°19.958 2°56.449 78.6 12.2 79 12.4
2011-09-20 08:18:39 51°19.962 2°56.475 79.2 12.2 77 12.6
2011-09-20 08:18:45 51°19.967 2°56.507 78.3 12.2 76 12.4
2011-09-20 08:18:49 51°19.97 2°56.528 78.3 12.2 77 12.4
2011-09-20 08:18:54 51°19.974 2°56.554 77.3 12.1 74 12.4
2011-09-20 08:18:59 51°19.979 2°56.579 75 11.9 74 12.4
2011-09-20 08:19:04 51°19.982 2°56.606 77.5 12.2 76 12.5
2011-09-20 08:19:09 51°19.987 2°56.632 77 12.1 77 12.5
2011-09-20 08:19:14 51°19.99 2°56.658 78.4 12 80 12.4
2011-09-20 08:19:19 51°19.994 2°56.684 78.8 12.2 77 12.3
2011-09-20 08:19:24 51°19.997 2°56.711 78.5 12.4 79 12.3
2011-09-20 08:19:29 51°20 2°56.738 79.9 12.3 79 12.5
2011-09-20 08:19:34 51°20.005 2°56.764 79.5 12 75 12.4
2011-09-20 08:19:39 51°20.008 2°56.789 77.7 12 77 12.2
2011-09-20 08:19:45 51°20.014 2°56.821 76.7 12.4 73 12.4
2011-09-20 08:19:49 51°20.018 2°56.842 74.8 12.1 76 12.3
2011-09-20 08:19:54 51°20.021 2°56.867 77 11.9 77 12.2
2011-09-20 08:19:59 51°20.026 2°56.893 77.4 12.1 75 12.3
2011-09-20 08:20:04 51°20.03 2°56.92 76.4 12.4 75 12.3
2011-09-20 08:20:10 51°20.035 2°56.951 76.1 12.1 77 12.3
2011-09-20 08:20:14 51°20.038 2°56.972 77.8 12 77 12.1
2011-09-20 08:20:19 51°20.042 2°56.999 78.4 12.3 75 12.2
2011-09-20 08:20:25 51°20.048 2°57.03 76.5 12.3 74 12.1
2011-09-20 08:20:29 51°20.051 2°57.051 75.8 12 76 12.2
2011-09-20 08:20:34 51°20.055 2°57.077 77 12.1 76 12.1
2011-09-20 08:20:39 51°20.058 2°57.103 78.4 12.3 78 12.1
2011-09-20 08:20:45 51°20.064 2°57.135 77.6 12.2 76 12.2
2011-09-20 08:20:50 51°20.067 2°57.161 77.7 12 79 12.2
2011-09-20 08:20:54 51°20.069 2°57.182 78.8 11.9 78 12
2011-09-20 08:20:59 51°20.072 2°57.208 79.9 12.1 79 12.1
2011-09-20 08:21:04 51°20.077 2°57.234 78.5 12.4 74 12.2
2011-09-20 08:21:10 51°20.082 2°57.266 76.9 12.1 77 12
2011-09-20 08:21:14 51°20.085 2°57.287 77.1 12.1 77 12.1
2011-09-20 08:21:19 51°20.09 2°57.313 76.9 12.2 74 12.1
2011-09-20 08:21:24 51°20.094 2°57.339 76.3 12.1 76 12
2011-09-20 08:21:29 51°20.098 2°57.365 77.3 12.3 76 11.9
2011-09-20 08:21:34 51°20.102 2°57.391 76.7 12.4 75 12.2
2011-09-20 08:21:39 51°20.108 2°57.416 73.9 11.9 71 12
2011-09-20 08:21:44 51°20.111 2°57.442 76 11.9 79 12
2011-09-20 08:21:49 51°20.115 2°57.468 77.8 12.3 75 12
2011-09-20 08:21:54 51°20.119 2°57.495 77.7 12.2 77 12
2011-09-20 08:21:59 51°20.123 2°57.521 77.4 12 75 11.9
2011-09-20 08:22:05 51°20.128 2°57.551 77 11.8 75 12
2011-09-20 08:22:09 51°20.132 2°57.571 75.8 11.9 75 11.9
2011-09-20 08:22:14 51°20.135 2°57.597 77.3 12.2 77 11.9
2011-09-20 08:22:19 51°20.14 2°57.623 76.9 12.2 75 11.9
2011-09-20 08:22:24 51°20.143 2°57.649 77.7 11.8 79 11.8
2011-09-20 08:22:30 51°20.148 2°57.68 78.7 11.9 77 11.8
2011-09-20 08:22:34 51°20.15 2°57.701 78.6 12 79 12
2011-09-20 08:22:39 51°20.153 2°57.728 80.6 12.2 79 11.7
2011-09-20 08:22:45 51°20.157 2°57.759 80.6 12.1 79 12
2011-09-20 08:22:49 51°20.16 2°57.78 79 12 74 11.8
2011-09-20 08:22:54 51°20.165 2°57.805 76.8 11.9 75 11.7
2011-09-20 08:22:59 51°20.169 2°57.831 75.8 12.1 75 11.8
2011-09-20 08:23:05 51°20.175 2°57.862 75.4 12.2 73 11.8
2011-09-20 08:23:10 51°20.18 2°57.887 74.7 12 73 11.8
2011-09-20 08:23:14 51°20.184 2°57.907 73.3 11.8 72 11.9
2011-09-20 08:23:19 51°20.189 2°57.933 74.5 11.9 75 11.8
2011-09-20 08:23:24 51°20.194 2°57.958 73.9 12.2 71 11.7
2011-09-20 08:23:29 51°20.199 2°57.984 72.8 12.2 72 11.8
2011-09-20 08:23:34 51°20.204 2°58.009 73.2 12.1 72 11.8
2011-09-20 08:23:39 51°20.209 2°58.035 73.7 11.9 73 11.8
2011-09-20 08:23:44 51°20.214 2°58.06 73.6 11.9 72 11.8
2011-09-20 08:23:49 51°20.218 2°58.086 74.8 12 77 11.7
2011-09-20 08:23:54 51°20.223 2°58.111 76.4 12 74 11.8
2011-09-20 08:23:59 51°20.228 2°58.136 74.8 11.8 73 11.8
2011-09-20 08:24:04 51°20.232 2°58.161 74.6 12 74 11.6
2011-09-20 08:24:09 51°20.237 2°58.187 74.2 12.1 71 11.7
2011-09-20 08:24:14 51°20.242 2°58.213 73.2 12.2 74 11.6
2011-09-20 08:24:19 51°20.247 2°58.24 75.6 12.7 74 11.7
2011-09-20 08:24:25 51°20.253 2°58.272 74.1 12.5 73 11.8
2011-09-20 08:24:29 51°20.257 2°58.292 73.8 12 75 11.5
2011-09-20 08:24:34 51°20.261 2°58.318 76 12.1 76 11.4
2011-09-20 08:24:39 51°20.265 2°58.345 77 12.7 76 11.6
2011-09-20 08:24:45 51°20.27 2°58.378 76.7 12.6 75 11.8
2011-09-20 08:24:50 51°20.274 2°58.404 75.7 12 77 11.6
2011-09-20 08:24:54 51°20.277 2°58.425 78.7 12 79 11.6
2011-09-20 08:24:59 51°20.281 2°58.451 78.1 12 74 11.6
2011-09-20 08:25:05 51°20.286 2°58.481 75.6 11.8 76 11.7
2011-09-20 08:25:09 51°20.289 2°58.501 76.2 11.7 77 11.5
2011-09-20 08:25:14 51°20.292 2°58.527 78.1 11.9 80 11.6
2011-09-20 08:25:19 51°20.296 2°58.554 79.3 12.2 76 11.6
2011-09-20 08:25:24 51°20.3 2°58.579 77.4 12 75 11.6
2011-09-20 08:25:30 51°20.306 2°58.609 77 11.8 74 11.6
2011-09-20 08:25:34 51°20.309 2°58.63 75.8 12 74 11.5
2011-09-20 08:25:39 51°20.314 2°58.656 75.2 12.2 73 11.6
2011-09-20 08:25:44 51°20.319 2°58.681 73.6 11.9 73 11.4
2011-09-20 08:25:50 51°20.325 2°58.711 74.1 11.9 73 11.4
2011-09-20 08:25:54 51°20.329 2°58.732 74.1 12.1 73 11.4
2011-09-20 08:25:59 51°20.334 2°58.757 73.6 12.1 72 11.5
2011-09-20 08:26:04 51°20.34 2°58.782 72.1 11.9 72 11.3
2011-09-20 08:26:09 51°20.343 2°58.808 74.3 12 74 11.5
2011-09-20 08:26:14 51°20.349 2°58.833 74.2 12 72 11.5
2011-09-20 08:26:19 51°20.353 2°58.858 75 11.8 75 11.4
2011-09-20 08:26:25 51°20.359 2°58.888 75.6 11.8 73 11.4
2011-09-20 08:26:29 51°20.363 2°58.908 73.9 11.9 72 11.4
2011-09-20 08:26:34 51°20.368 2°58.933 73.1 11.8 73 11.5
2011-09-20 08:26:39 51°20.372 2°58.959 74.9 11.8 76 11.3
2011-09-20 08:26:44 51°20.376 2°58.984 76.2 12.1 74 11.3
2011-09-20 08:26:50 51°20.382 2°59.015 75.5 11.9 74 11.5
2011-09-20 08:26:54 51°20.386 2°59.035 74.6 11.9 73 11.2
2011-09-20 08:26:59 51°20.39 2°59.061 75 12 74 11.3
2011-09-20 08:27:05 51°20.395 2°59.092 75.4 12 77 11.4
2011-09-20 08:27:10 51°20.398 2°59.118 77.9 12.1 78 11.3
2011-09-20 08:27:14 51°20.401 2°59.139 78.5 12.1 77 11.4
2011-09-20 08:27:19 51°20.404 2°59.165 79.5 12.1 80 11.2
2011-09-20 08:27:25 51°20.409 2°59.197 80.2 12.2 76 11.3
2011-09-20 08:27:30 51°20.412 2°59.223 78.4 12 78 11.2
2011-09-20 08:27:34 51°20.414 2°59.244 79.3 12.1 80 11.2
2011-09-20 08:27:39 51°20.418 2°59.27 79.3 12.2 77 11.2
2011-09-20 08:27:44 51°20.422 2°59.297 79 12.2 78 11.2
2011-09-20 08:27:50 51°20.426 2°59.328 78.9 12.1 77 11.2
2011-09-20 08:27:54 51°20.429 2°59.349 78.9 12.1 78 11
2011-09-20 08:27:59 51°20.432 2°59.376 79.7 12.5 78 11.1
2011-09-20 08:28:04 51°20.437 2°59.403 77.7 12.2 77 11.2
2011-09-20 08:28:09 51°20.44 2°59.429 78.3 11.9 78 11.1
2011-09-20 08:28:14 51°20.444 2°59.454 78.8 12 77 11.1
2011-09-20 08:28:19 51°20.448 2°59.481 78.5 12.3 77 11.1
2011-09-20 08:28:25 51°20.453 2°59.513 77.7 12.3 76 11.1
2011-09-20 08:28:29 51°20.456 2°59.534 77 12.2 75 11.2
2011-09-20 08:28:34 51°20.46 2°59.559 76.3 11.9 76 11.1
2011-09-20 08:28:39 51°20.463 2°59.585 78.4 11.9 79 11.1
2011-09-20 08:28:45 51°20.469 2°59.616 78.5 12.2 75 11.2
2011-09-20 08:28:49 51°20.472 2°59.637 76.4 12 75 11.1
2011-09-20 08:28:54 51°20.476 2°59.662 76.3 11.9 75 11.1
2011-09-20 08:28:59 51°20.481 2°59.687 75.2 11.8 72 11
2011-09-20 08:29:04 51°20.486 2°59.712 73.9 12.1 73 11
2011-09-20 08:29:10 51°20.493 2°59.743 73 12.2 71 11.1
2011-09-20 08:29:14 51°20.498 2°59.763 71.1 12 69 11.1
2011-09-20 08:29:19 51°20.502 2°59.787 72.2 11.7 75 10.9
2011-09-20 08:29:25 51°20.508 2°59.818 74.5 12.1 71 11
2011-09-20 08:29:29 51°20.512 2°59.839 73.1 12.1 73 11
2011-09-20 08:29:34 51°20.517 2°59.864 73.2 12 73 10.9
2011-09-20 08:29:39 51°20.522 2°59.889 74.3 12 72 10.9
2011-09-20 08:29:44 51°20.528 2°59.915 72.9 12.2 73 10.9
2011-09-20 08:29:50 51°20.534 2°59.945 73.2 12.2 70 11
2011-09-20 08:29:54 51°20.539 2°59.965 71.9 12 71 10.9
2011-09-20 08:29:59 51°20.542 2°59.991 73.8 11.8 75 10.9
2011-09-20 08:30:04 51°20.547 3°0.016 76.3 12 77 10.8
2011-09-20 08:30:09 51°20.55 3°0.043 78.2 12.4 77 11
2011-09-20 08:30:14 51°20.555 3°0.069 77.5 12.1 75 11
2011-09-20 08:30:19 51°20.558 3°0.094 78 11.6 78 10.9
2011-09-20 08:30:24 51°20.562 3°0.119 78.1 11.7 78 10.9
2011-09-20 08:30:30 51°20.566 3°0.15 78.7 12 77 10.8
2011-09-20 08:30:34 51°20.569 3°0.171 78.3 12.1 78 10.8
2011-09-20 08:30:39 51°20.572 3°0.197 79.2 11.9 79 10.9
2011-09-20 08:30:44 51°20.575 3°0.222 79.6 11.7 81 10.9
2011-09-20 08:30:49 51°20.578 3°0.249 80.9 12.1 78 10.9
2011-09-20 08:30:54 51°20.582 3°0.275 78.5 12.2 76 11
2011-09-20 08:30:59 51°20.586 3°0.301 77.9 12 77 10.9
2011-09-20 08:31:05 51°20.59 3°0.332 78.4 11.9 79 11
2011-09-20 08:31:09 51°20.593 3°0.353 78.7 12.1 77 10.8
2011-09-20 08:31:14 51°20.597 3°0.379 78 12.2 76 10.9
2011-09-20 08:31:19 51°20.602 3°0.405 76.2 12.3 74 11
2011-09-20 08:31:24 51°20.606 3°0.431 75.2 11.9 75 11
2011-09-20 08:31:30 51°20.611 3°0.461 75.6 11.7 75 10.8
2011-09-20 08:31:34 51°20.615 3°0.481 76.2 11.9 74 10.9
2011-09-20 08:31:39 51°20.619 3°0.507 76.2 12 75 10.7
2011-09-20 08:31:44 51°20.623 3°0.532 76.4 11.8 76 10.9
2011-09-20 08:31:50 51°20.628 3°0.563 76.5 11.8 76 10.9
2011-09-20 08:31:54 51°20.631 3°0.583 76.9 11.8 77 10.9
2011-09-20 08:31:59 51°20.634 3°0.609 78 11.8 78 11
2011-09-20 08:32:04 51°20.638 3°0.634 78.7 12.1 76 11
2011-09-20 08:32:09 51°20.642 3°0.661 77.7 12.1 77 10.9